Pep, Texas
Current Conditions -  °F | °C
As of 2:53 PM on Friday 24 Oct 2014 (Local Time) from KLBB Reporting Station
Few Clouds Few Clouds  
Wind Chill: 84°   Ceiling: Unl
Heat Index: 84°   Visibility: 10mi
Dew Point: 53°   Wind: 15mph
Humidity: 34%   Direction: 210°SSW
Pressure: 30.12"   Gusts: NA
Location:  33.81°N, 102.56°W
Report Text: KLBB 241953Z 21013KT 10SM FEW070 FEW270 29/12 A3012 RMK AO2 SLP157 T02890117
Loading
Personal Weather Stations






























Interactive Weather Map
Tropical Storm Tracking
New forecast layout! Learn more

10-Day Weather Forecast

Advertisements
Track Severe Weather on mobile